createdAt,value
2022-12-28T00:01:11.069Z,101641.38
2022-12-28T00:03:12.836Z,101611.56
2022-12-28T00:05:14.690Z,101609.31
2022-12-28T00:07:16.683Z,101633.75
2022-12-28T00:09:18.707Z,101639.13
2022-12-28T00:11:30.999Z,101639.44
2022-12-28T00:13:33.653Z,101628.22
2022-12-28T00:15:37.613Z,101617.56
2022-12-28T00:17:39.362Z,101633.28
2022-12-28T00:19:41.096Z,101645.63
2022-12-28T00:21:44.359Z,101615.81
2022-12-28T00:23:50.263Z,101651.72
2022-12-28T00:25:52.666Z,101645.22
2022-12-28T00:27:54.410Z,101650.44
2022-12-28T00:29:56.109Z,101631.38
2022-12-28T00:31:57.900Z,101632.34
2022-12-28T00:33:59.637Z,101647.34
2022-12-28T00:36:02.611Z,101639.56
2022-12-28T00:38:04.390Z,101641.72
2022-12-28T00:40:06.830Z,101633.16
2022-12-28T00:42:08.924Z,101617.91
2022-12-28T00:44:10.929Z,101631.72
2022-12-28T00:46:13.028Z,101633.50
2022-12-28T00:48:16.247Z,101626.25
2022-12-28T00:50:18.073Z,101629.78
2022-12-28T00:52:19.778Z,101634.91
2022-12-28T00:54:21.491Z,101636.44
2022-12-28T00:56:23.587Z,101636.25
2022-12-28T00:58:25.297Z,101640.25
2022-12-28T01:00:27.845Z,101640.25
2022-12-28T01:02:29.596Z,101624.44
2022-12-28T01:04:31.384Z,101614.97
2022-12-28T01:06:33.171Z,101628.75
2022-12-28T01:08:39.065Z,101614.09
2022-12-28T01:10:41.488Z,101628.09
2022-12-28T01:12:43.369Z,101605.56
2022-12-28T01:14:45.365Z,101619.22
2022-12-28T01:16:47.189Z,101621.25
2022-12-28T01:18:53.473Z,101627.63
2022-12-28T01:20:55.492Z,101604.53
2022-12-28T01:22:57.184Z,101623.53
2022-12-28T01:24:58.889Z,101610.06
2022-12-28T01:27:00.878Z,101620.06
2022-12-28T01:29:02.647Z,101612.38
2022-12-28T01:31:12.938Z,101627.06
2022-12-28T01:33:14.644Z,101622.16
2022-12-28T01:35:17.944Z,101606.03
2022-12-28T01:37:20.464Z,101615.81
2022-12-28T01:39:22.333Z,101605.63
2022-12-28T01:41:25.200Z,101597.28
2022-12-28T01:43:41.512Z,101604.72
2022-12-28T01:45:48.482Z,101596.03
2022-12-28T01:47:54.392Z,101594.22
2022-12-28T01:50:13.657Z,101594.09
2022-12-28T01:52:44.659Z,101586.81
2022-12-28T01:54:51.538Z,101585.84
2022-12-28T01:56:53.803Z,101558.13
2022-12-28T01:58:57.566Z,101572.88
2022-12-28T02:00:59.699Z,101564.63
2022-12-28T02:03:08.078Z,101573.03
2022-12-28T02:05:10.112Z,101563.13
2022-12-28T02:07:16.693Z,101578.06
2022-12-28T02:09:28.102Z,101573.81
2022-12-28T02:11:30.188Z,101558.63
2022-12-28T02:13:32.111Z,101573.09
2022-12-28T02:15:33.893Z,101570.66
2022-12-28T02:17:35.747Z,101554.94
2022-12-28T02:19:46.321Z,101572.41
2022-12-28T02:22:00.127Z,101575.13
2022-12-28T02:24:02.196Z,101572.50
2022-12-28T02:26:28.271Z,101577.78
2022-12-28T02:29:00.990Z,101577.00
2022-12-28T02:31:12.113Z,101564.75
2022-12-28T02:33:40.134Z,101549.19
2022-12-28T02:36:14.555Z,101559.78
2022-12-28T02:38:28.516Z,101555.06
2022-12-28T02:40:43.871Z,101559.16
2022-12-28T02:42:47.133Z,101547.16
2022-12-28T02:44:48.846Z,101554.28
2022-12-28T02:46:50.570Z,101557.56
2022-12-28T02:48:52.244Z,101560.06
2022-12-28T02:51:23.861Z,101550.63
2022-12-28T02:54:10.166Z,101550.25
2022-12-28T02:56:33.941Z,101550.47
2022-12-28T02:58:44.727Z,101546.94
2022-12-28T03:00:54.490Z,101541.50
2022-12-28T03:03:15.720Z,101533.47
2022-12-28T03:05:46.884Z,101531.88
2022-12-28T03:08:01.136Z,101525.25
2022-12-28T03:10:23.590Z,101518.66
2022-12-28T03:13:00.410Z,101508.31
2022-12-28T03:15:08.411Z,101509.22
2022-12-28T03:17:12.867Z,101498.72
2022-12-28T03:19:14.678Z,101485.91
2022-12-28T03:21:17.119Z,101492.19
2022-12-28T03:23:23.598Z,101493.88
2022-12-28T03:25:30.678Z,101491.38
2022-12-28T03:27:34.520Z,101461.09
2022-12-28T03:29:43.173Z,101492.25
2022-12-28T03:31:45.100Z,101478.84
2022-12-28T03:33:53.089Z,101501.72
2022-12-28T03:36:25.315Z,101506.53
2022-12-28T03:38:37.895Z,101500.50
2022-12-28T03:40:49.149Z,101472.97
2022-12-28T03:42:54.688Z,101507.38
2022-12-28T03:45:05.330Z,101501.41
2022-12-28T03:47:13.935Z,101494.75
2022-12-28T03:49:16.068Z,101512.34
2022-12-28T03:51:22.914Z,101509.31
2022-12-28T03:53:31.734Z,101515.09
2022-12-28T03:55:33.563Z,101511.28
2022-12-28T03:57:35.326Z,101484.31
2022-12-28T03:59:37.395Z,101486.78
2022-12-28T04:01:39.278Z,101498.75
2022-12-28T04:03:41.610Z,101506.41
2022-12-28T04:05:43.322Z,101508.03
2022-12-28T04:07:45.103Z,101509.19
2022-12-28T04:09:46.917Z,101506.84
2022-12-28T04:11:48.850Z,101504.19
2022-12-28T04:13:50.801Z,101507.81
2022-12-28T04:16:00.242Z,101493.97
2022-12-28T04:18:02.221Z,101500.50
2022-12-28T04:20:05.272Z,101469.44
2022-12-28T04:22:07.171Z,101476.75
2022-12-28T04:24:08.922Z,101471.03
2022-12-28T04:26:13.522Z,101450.47
2022-12-28T04:28:15.513Z,101481.06
2022-12-28T04:30:17.264Z,101483.53
2022-12-28T04:32:19.032Z,101462.13
2022-12-28T04:34:20.772Z,101485.50
2022-12-28T04:36:22.488Z,101492.03
2022-12-28T04:38:24.224Z,101494.72
2022-12-28T04:40:26.165Z,101485.06
2022-12-28T04:42:27.857Z,101456.38
2022-12-28T04:44:29.560Z,101481.34
2022-12-28T04:46:31.515Z,101436.19
2022-12-28T04:48:34.371Z,101417.94
2022-12-28T04:50:36.885Z,101480.34
2022-12-28T04:52:38.792Z,101460.34
2022-12-28T04:54:40.474Z,101471.25
2022-12-28T04:56:42.217Z,101466.25
2022-12-28T04:58:44.460Z,101468.88
2022-12-28T05:00:46.260Z,101479.59
2022-12-28T05:02:48.011Z,101429.78
2022-12-28T05:04:49.860Z,101451.06
2022-12-28T05:06:51.585Z,101470.13
2022-12-28T05:08:53.532Z,101447.81
2022-12-28T05:10:59.118Z,101431.13
2022-12-28T05:13:00.941Z,101465.94
2022-12-28T05:15:02.620Z,101457.84
2022-12-28T05:17:04.835Z,101458.16
2022-12-28T05:19:06.548Z,101461.81
2022-12-28T05:21:17.545Z,101455.66
2022-12-28T05:23:19.381Z,101451.94
2022-12-28T05:25:25.324Z,101442.19
2022-12-28T05:27:30.060Z,101437.81
2022-12-28T05:29:31.903Z,101415.81
2022-12-28T05:31:35.297Z,101435.47
2022-12-28T05:33:37.471Z,101386.66
2022-12-28T05:35:40.714Z,101432.41
2022-12-28T05:37:42.423Z,101429.78
2022-12-28T05:39:44.250Z,101420.91
2022-12-28T05:41:46.146Z,101411.59
2022-12-28T05:43:48.520Z,101396.84
2022-12-28T05:45:50.234Z,101406.56
2022-12-28T05:47:52.509Z,101402.56
2022-12-28T05:49:54.205Z,101426.56
2022-12-28T05:51:55.956Z,101412.06
2022-12-28T05:53:59.736Z,101426.72
2022-12-28T05:56:14.746Z,101413.69
2022-12-28T05:58:16.710Z,101381.47
2022-12-28T06:00:18.613Z,101404.22
2022-12-28T06:02:24.495Z,101394.66
2022-12-28T06:04:26.651Z,101412.00
2022-12-28T06:06:29.227Z,101393.66
2022-12-28T06:08:30.887Z,101395.94
2022-12-28T06:10:33.452Z,101392.47
2022-12-28T06:12:35.242Z,101373.16
2022-12-28T06:14:36.953Z,101388.66
2022-12-28T06:16:41.381Z,101393.06
2022-12-28T06:18:44.493Z,101387.53
2022-12-28T06:20:46.209Z,101393.81
2022-12-28T06:22:47.896Z,101382.88
2022-12-28T06:24:49.811Z,101315.44
2022-12-28T06:26:51.487Z,101386.22
2022-12-28T06:28:53.332Z,101388.41
2022-12-28T06:31:06.524Z,101371.81
2022-12-28T06:33:08.395Z,101375.28
2022-12-28T06:35:10.073Z,101358.19
2022-12-28T06:37:11.841Z,101371.69
2022-12-28T06:39:14.440Z,101367.00
2022-12-28T06:41:17.690Z,101362.63
2022-12-28T06:43:19.553Z,101338.88
2022-12-28T06:45:21.275Z,101380.56
2022-12-28T06:47:23.024Z,101378.53
2022-12-28T06:49:25.088Z,101372.25
2022-12-28T06:51:32.302Z,101360.53
2022-12-28T06:53:36.750Z,101369.84
2022-12-28T06:55:38.866Z,101364.00
2022-12-28T06:57:40.567Z,101363.00
2022-12-28T06:59:42.253Z,101347.53
2022-12-28T07:01:44.306Z,101339.63
2022-12-28T07:03:48.505Z,101345.84
2022-12-28T07:05:51.307Z,101351.84
2022-12-28T07:07:53.349Z,101335.69
2022-12-28T07:09:55.051Z,101364.09
2022-12-28T07:11:56.812Z,101334.13
2022-12-28T07:13:58.610Z,101337.94
2022-12-28T07:16:10.407Z,101342.72
2022-12-28T07:18:12.532Z,101355.66
2022-12-28T07:20:14.361Z,101332.72
2022-12-28T07:22:16.039Z,101347.03
2022-12-28T07:24:17.778Z,101318.19
2022-12-28T07:26:22.617Z,101349.94
2022-12-28T07:28:25.222Z,101332.31
2022-12-28T07:30:27.182Z,101324.41
2022-12-28T07:32:29.188Z,101346.19
2022-12-28T07:34:31.260Z,101331.88
2022-12-28T07:36:33.343Z,101315.72
2022-12-28T07:38:36.207Z,101336.25
2022-12-28T07:40:38.013Z,101324.63
2022-12-28T07:42:39.688Z,101324.34
2022-12-28T07:44:48.635Z,101338.56
2022-12-28T07:46:50.844Z,101336.47
2022-12-28T07:48:53.539Z,101341.56
2022-12-28T07:50:55.354Z,101343.94
2022-12-28T07:52:57.197Z,101345.34
2022-12-28T07:54:58.904Z,101327.41
2022-12-28T07:57:00.807Z,101339.06
2022-12-28T07:59:06.354Z,101328.09
2022-12-28T08:01:15.009Z,101311.88
2022-12-28T08:03:20.495Z,101326.00
2022-12-28T08:05:22.285Z,101318.44
2022-12-28T08:07:24.364Z,101315.44
2022-12-28T08:09:26.345Z,101319.50
2022-12-28T08:11:30.849Z,101287.84
2022-12-28T08:13:34.817Z,101319.88
2022-12-28T08:15:36.907Z,101300.13
2022-12-28T08:17:38.720Z,101319.47
2022-12-28T08:19:41.640Z,101311.03
2022-12-28T08:21:45.163Z,101294.97
2022-12-28T08:23:48.197Z,101295.97
2022-12-28T08:25:49.946Z,101311.72
2022-12-28T08:27:51.973Z,101288.41
2022-12-28T08:29:53.661Z,101302.63
2022-12-28T08:31:55.343Z,101312.66
2022-12-28T08:34:00.556Z,101319.59
2022-12-28T08:36:03.107Z,101310.13
2022-12-28T08:38:04.942Z,101297.78
2022-12-28T08:40:07.240Z,101304.19
2022-12-28T08:42:09.002Z,101292.63
2022-12-28T08:44:11.055Z,101303.19
2022-12-28T08:46:15.854Z,101318.91
2022-12-28T08:48:17.763Z,101314.16
2022-12-28T08:50:20.168Z,101317.06
2022-12-28T08:52:23.059Z,101314.94
2022-12-28T08:54:24.772Z,101303.75
2022-12-28T08:56:29.381Z,101317.50
2022-12-28T08:58:33.406Z,101301.69
2022-12-28T09:00:35.304Z,101307.94
2022-12-28T09:02:37.296Z,101286.66
2022-12-28T09:04:39.268Z,101268.22
2022-12-28T09:06:41.460Z,101296.88
2022-12-28T09:08:51.406Z,101282.94
2022-12-28T09:11:11.182Z,101276.09
2022-12-28T09:13:13.034Z,101300.31
2022-12-28T09:15:14.884Z,101303.06
2022-12-28T09:17:16.804Z,101286.50
2022-12-28T09:19:18.649Z,101295.53
2022-12-28T09:21:22.169Z,101290.38
2022-12-28T09:23:24.766Z,101293.59
2022-12-28T09:25:26.502Z,101289.97
2022-12-28T09:27:28.229Z,101289.28
2022-12-28T09:29:30.217Z,101267.72
2022-12-28T09:31:33.612Z,101272.97
2022-12-28T09:33:57.401Z,101272.41
2022-12-28T09:35:59.248Z,101248.28
2022-12-28T09:38:01.259Z,101250.00
2022-12-28T09:40:03.455Z,101223.22
2022-12-28T09:42:15.396Z,101240.84
2022-12-28T09:44:40.211Z,101230.22
2022-12-28T09:47:11.178Z,101225.03
2022-12-28T09:49:16.833Z,101216.44
2022-12-28T09:51:21.047Z,101236.72
2022-12-28T09:53:31.795Z,101221.78
2022-12-28T09:55:36.098Z,101216.09
2022-12-28T09:57:42.335Z,101210.41
2022-12-28T09:59:46.825Z,101206.63
2022-12-28T10:02:01.018Z,101196.78
2022-12-28T10:04:04.525Z,101183.84
2022-12-28T10:06:13.289Z,101202.63
2022-12-28T10:08:17.385Z,101198.66
2022-12-28T10:10:22.449Z,101187.75
2022-12-28T10:12:24.435Z,101187.78
2022-12-28T10:14:29.360Z,101186.22
2022-12-28T10:16:33.079Z,101194.66
2022-12-28T10:18:39.361Z,101186.03
2022-12-28T10:20:43.870Z,101177.16
2022-12-28T10:22:51.009Z,101187.94
2022-12-28T10:24:54.297Z,101156.41
2022-12-28T10:27:01.507Z,101183.59
2022-12-28T10:29:03.292Z,101183.03
2022-12-28T10:31:12.633Z,101179.19
2022-12-28T10:33:19.903Z,101166.81
2022-12-28T10:35:26.082Z,101165.13
2022-12-28T10:37:31.397Z,101159.88
2022-12-28T10:39:34.101Z,101174.41
2022-12-28T10:41:39.204Z,101150.25
2022-12-28T10:43:44.491Z,101174.09
2022-12-28T10:45:49.980Z,101138.13
2022-12-28T10:47:56.677Z,101120.78
2022-12-28T10:52:21.597Z,101136.28
2022-12-28T10:54:28.239Z,101137.50
2022-12-28T10:56:44.510Z,101125.50
2022-12-28T10:58:48.704Z,101123.25
2022-12-28T11:01:01.844Z,101106.97
2022-12-28T11:03:18.378Z,101099.09
2022-12-28T11:05:24.903Z,101092.81
2022-12-28T11:07:31.519Z,101074.75
2022-12-28T11:09:35.976Z,101083.91
2022-12-28T11:11:37.834Z,101069.19
2022-12-28T11:13:40.354Z,101063.88
2022-12-28T11:15:42.529Z,101081.28
2022-12-28T11:17:49.906Z,101075.38
2022-12-28T11:19:56.139Z,101049.06
2022-12-28T11:21:57.949Z,101052.91
2022-12-28T11:23:59.845Z,101019.97
2022-12-28T11:26:01.811Z,101037.25
2022-12-28T11:28:14.464Z,101039.88
2022-12-28T11:30:18.444Z,101016.59
2022-12-28T11:32:25.940Z,101034.91
2022-12-28T11:34:29.649Z,101020.81
2022-12-28T11:36:32.197Z,101034.44
2022-12-28T11:39:20.108Z,101019.84
2022-12-28T11:41:33.416Z,101014.38
2022-12-28T11:43:37.851Z,100997.09
2022-12-28T11:45:58.817Z,101011.59
2022-12-28T11:48:38.886Z,101016.25
2022-12-28T11:50:42.085Z,101010.34
2022-12-28T11:52:46.210Z,101012.22
2022-12-28T11:55:02.343Z,101005.38
2022-12-28T11:57:04.938Z,101012.25
2022-12-28T11:59:20.007Z,101007.09
2022-12-28T12:01:28.056Z,100993.94
2022-12-28T12:03:57.682Z,100993.97
2022-12-28T12:05:59.496Z,100961.94
2022-12-28T12:08:02.110Z,100974.88
2022-12-28T12:10:29.612Z,100972.78
2022-12-28T12:12:31.347Z,100964.47
2022-12-28T12:14:52.862Z,100957.00
2022-12-28T12:17:02.099Z,100958.81
2022-12-28T12:19:05.133Z,100952.78
2022-12-28T12:21:13.549Z,100953.41
2022-12-28T12:23:36.460Z,100953.13
2022-12-28T12:25:42.766Z,100946.53
2022-12-28T12:28:02.360Z,100941.00
2022-12-28T12:30:15.441Z,100924.19
2022-12-28T12:32:32.573Z,100932.41
2022-12-28T12:34:49.891Z,100924.53
2022-12-28T12:37:23.930Z,100927.72
2022-12-28T12:39:28.688Z,100929.81
2022-12-28T12:42:02.895Z,100922.88
2022-12-28T12:44:21.433Z,100925.50
2022-12-28T12:46:50.420Z,100923.22
2022-12-28T12:49:27.644Z,100906.28
2022-12-28T12:51:55.405Z,100915.25
2022-12-28T12:54:15.548Z,100907.13
2022-12-28T12:56:38.691Z,100904.72
2022-12-28T12:59:05.920Z,100888.97
2022-12-28T13:01:20.344Z,100899.16
2022-12-28T13:03:40.883Z,100897.88
2022-12-28T13:05:49.657Z,100899.91
2022-12-28T13:07:51.543Z,100881.63
2022-12-28T13:09:57.930Z,100890.75
2022-12-28T13:12:01.913Z,100869.75
2022-12-28T13:14:04.467Z,100854.50
2022-12-28T13:16:11.904Z,100880.16
2022-12-28T13:18:44.056Z,100866.16
2022-12-28T13:20:40.931Z,100867.53
2022-12-28T13:22:45.438Z,100871.75
2022-12-28T13:24:47.396Z,100861.44
2022-12-28T13:26:49.724Z,100853.34
2022-12-28T13:29:00.581Z,100851.88
2022-12-28T13:31:10.197Z,100853.13
2022-12-28T13:33:22.720Z,100835.69
2022-12-28T13:35:30.814Z,100851.88
2022-12-28T13:37:32.631Z,100841.56
2022-12-28T13:39:41.575Z,100852.53
2022-12-28T13:41:58.802Z,100848.09
2022-12-28T13:44:33.474Z,100832.75
2022-12-28T13:46:38.591Z,100845.91
2022-12-28T13:48:44.666Z,100822.34
2022-12-28T13:50:46.691Z,100837.19
2022-12-28T13:52:55.493Z,100837.78
2022-12-28T13:55:02.165Z,100835.91
2022-12-28T13:57:36.614Z,100813.75
2022-12-28T13:59:27.798Z,100797.91
2022-12-28T14:01:39.891Z,100814.50
2022-12-28T14:03:46.310Z,100819.84
2022-12-28T14:05:54.540Z,100810.19
2022-12-28T14:07:58.741Z,100805.44
2022-12-28T14:10:00.833Z,100769.13
2022-12-28T14:12:03.325Z,100777.22
2022-12-28T14:14:05.784Z,100801.88
2022-12-28T14:16:08.855Z,100794.31
2022-12-28T14:18:15.768Z,100792.03
2022-12-28T14:20:17.781Z,100795.91
2022-12-28T14:22:28.741Z,100779.63
2022-12-28T14:24:30.965Z,100770.50
2022-12-28T14:26:33.392Z,100779.31
2022-12-28T14:28:45.122Z,100775.97
2022-12-28T14:30:52.925Z,100799.78
2022-12-28T14:32:55.903Z,100778.28
2022-12-28T14:34:59.415Z,100800.72
2022-12-28T14:37:01.788Z,100790.56
2022-12-28T14:39:05.327Z,100796.41
2022-12-28T14:41:21.327Z,100797.91
2022-12-28T14:43:26.421Z,100803.44
2022-12-28T14:46:07.381Z,100805.34
2022-12-28T14:48:22.446Z,100807.56
2022-12-28T14:50:29.818Z,100807.34
2022-12-28T14:52:36.780Z,100795.59
2022-12-28T14:54:49.901Z,100802.53
2022-12-28T14:57:05.159Z,100812.50
2022-12-28T14:59:21.050Z,100797.25
2022-12-28T15:01:24.175Z,100796.00
2022-12-28T15:03:26.775Z,100771.00
2022-12-28T15:05:37.729Z,100793.25
2022-12-28T15:07:39.421Z,100794.53
2022-12-28T15:09:41.283Z,100782.34
2022-12-28T15:11:43.114Z,100781.50
2022-12-28T15:13:44.983Z,100772.88
2022-12-28T15:15:57.463Z,100785.31
2022-12-28T15:17:59.202Z,100788.97
2022-12-28T15:20:00.930Z,100761.25
2022-12-28T15:22:02.956Z,100793.25
2022-12-28T15:24:05.040Z,100796.28
2022-12-28T15:26:11.701Z,100788.72
2022-12-28T15:28:13.708Z,100773.28
2022-12-28T15:30:21.637Z,100802.69
2022-12-28T15:32:24.687Z,100774.97
2022-12-28T15:34:26.459Z,100800.91
2022-12-28T15:36:28.209Z,100775.53
2022-12-28T15:38:30.046Z,100778.94
2022-12-28T15:40:31.835Z,100783.59
2022-12-28T15:42:40.069Z,100773.91
2022-12-28T15:44:48.197Z,100775.63
2022-12-28T15:46:50.205Z,100772.66
2022-12-28T15:48:51.986Z,100769.81
2022-12-28T15:50:53.936Z,100777.66
2022-12-28T15:52:55.769Z,100776.63
2022-12-28T15:54:57.762Z,100778.69
2022-12-28T15:56:59.438Z,100783.94
2022-12-28T15:59:03.368Z,100769.63
2022-12-28T16:01:05.350Z,100777.59
2022-12-28T16:03:07.146Z,100766.31
2022-12-28T16:05:09.155Z,100766.69
2022-12-28T16:07:10.924Z,100762.94
2022-12-28T16:09:14.053Z,100775.81
2022-12-28T16:11:18.177Z,100775.03
2022-12-28T16:13:19.840Z,100762.50
2022-12-28T16:15:21.660Z,100762.38
2022-12-28T16:17:23.378Z,100758.38
2022-12-28T16:19:25.109Z,100766.44
2022-12-28T16:21:27.122Z,100774.88
2022-12-28T16:23:37.703Z,100775.06
2022-12-28T16:25:39.432Z,100781.88
2022-12-28T16:27:41.411Z,100749.03
2022-12-28T16:29:43.344Z,100764.75
2022-12-28T16:31:45.144Z,100782.34
2022-12-28T16:33:47.141Z,100783.44
2022-12-28T16:35:53.007Z,100775.41
2022-12-28T16:37:57.671Z,100770.19
2022-12-28T16:39:59.412Z,100771.69
2022-12-28T16:42:01.132Z,100778.31
2022-12-28T16:44:06.546Z,100778.97
2022-12-28T16:46:09.501Z,100776.56
2022-12-28T16:48:14.443Z,100773.38
2022-12-28T16:50:18.847Z,100777.56
2022-12-28T16:52:20.517Z,100754.97
2022-12-28T16:54:24.239Z,100755.06
2022-12-28T16:56:25.965Z,100761.63
2022-12-28T16:58:28.990Z,100767.84
2022-12-28T17:00:31.220Z,100763.38
2022-12-28T17:02:33.095Z,100744.00
2022-12-28T17:04:35.135Z,100745.78
2022-12-28T17:06:36.938Z,100750.25
2022-12-28T17:08:38.609Z,100746.88
2022-12-28T17:10:43.648Z,100757.00
2022-12-28T17:12:45.326Z,100749.50
2022-12-28T17:14:47.026Z,100738.97
2022-12-28T17:16:48.952Z,100726.69
2022-12-28T17:18:51.206Z,100746.69
2022-12-28T17:20:52.925Z,100743.78
2022-12-28T17:22:54.621Z,100746.91
2022-12-28T17:24:57.045Z,100741.88
2022-12-28T17:27:05.169Z,100750.25
2022-12-28T17:29:09.433Z,100738.88
2022-12-28T17:31:14.162Z,100744.16
2022-12-28T17:33:16.189Z,100736.94
2022-12-28T17:35:17.959Z,100742.19
2022-12-28T17:37:19.709Z,100738.59
2022-12-28T17:39:21.596Z,100713.59
2022-12-28T17:41:26.518Z,100739.84
2022-12-28T17:43:28.241Z,100713.44
2022-12-28T17:45:29.945Z,100734.78
2022-12-28T17:47:31.673Z,100736.03
2022-12-28T17:49:33.507Z,100727.34
2022-12-28T17:51:35.220Z,100727.38
2022-12-28T17:53:37.420Z,100728.56
2022-12-28T17:55:39.104Z,100732.19
2022-12-28T17:57:40.783Z,100725.06
2022-12-28T17:59:42.886Z,100729.81
2022-12-28T18:01:44.687Z,100729.78
2022-12-28T18:03:46.523Z,100717.09
2022-12-28T18:05:49.323Z,100731.94
2022-12-28T18:07:50.997Z,100724.47
2022-12-28T18:09:52.673Z,100714.00
2022-12-28T18:11:54.654Z,100717.94
2022-12-28T18:13:56.350Z,100715.38
2022-12-28T18:15:58.057Z,100717.22
2022-12-28T18:18:00.646Z,100720.56
2022-12-28T18:20:02.340Z,100724.84
2022-12-28T18:22:04.083Z,100727.03
2022-12-28T18:24:05.935Z,100715.88
2022-12-28T18:26:14.396Z,100724.28
2022-12-28T18:28:16.068Z,100703.34
2022-12-28T18:30:17.928Z,100719.97
2022-12-28T18:32:19.600Z,100682.06
2022-12-28T18:34:21.332Z,100699.78
2022-12-28T18:36:23.055Z,100713.94
2022-12-28T18:38:24.856Z,100709.16
2022-12-28T18:40:26.547Z,100709.03
2022-12-28T18:42:28.439Z,100715.97
2022-12-28T18:44:30.210Z,100714.31
2022-12-28T18:46:31.999Z,100710.25
2022-12-28T18:48:39.353Z,100707.84
2022-12-28T18:50:41.047Z,100690.03
2022-12-28T18:52:42.740Z,100702.47
2022-12-28T18:54:44.521Z,100708.81
2022-12-28T18:56:46.325Z,100703.66
2022-12-28T18:58:56.256Z,100709.38
2022-12-28T19:01:04.006Z,100697.56
2022-12-28T19:03:05.936Z,100689.06
2022-12-28T19:05:08.029Z,100710.00
2022-12-28T19:07:09.860Z,100694.81
2022-12-28T19:09:12.009Z,100685.44
2022-12-28T19:11:13.851Z,100692.41
2022-12-28T19:13:15.706Z,100686.53
2022-12-28T19:15:17.550Z,100688.44
2022-12-28T19:17:19.330Z,100705.47
2022-12-28T19:19:21.048Z,100703.28
2022-12-28T19:21:33.236Z,100706.97
2022-12-28T19:23:34.949Z,100699.00
2022-12-28T19:25:36.644Z,100707.28
2022-12-28T19:27:38.327Z,100711.31
2022-12-28T19:29:40.178Z,100696.22
2022-12-28T19:31:41.928Z,100690.63
2022-12-28T19:33:43.817Z,100682.94
2022-12-28T19:35:45.610Z,100688.84
2022-12-28T19:37:47.282Z,100706.53
2022-12-28T19:39:53.394Z,100705.44
2022-12-28T19:41:57.957Z,100679.59
2022-12-28T19:43:59.665Z,100699.69
2022-12-28T19:46:22.942Z,100709.06
2022-12-28T19:48:27.660Z,100698.88
2022-12-28T19:50:29.440Z,100708.44
2022-12-28T19:52:32.355Z,100693.97
2022-12-28T19:54:34.092Z,100693.03
2022-12-28T19:56:35.794Z,100710.84
2022-12-28T19:58:37.678Z,100702.09
2022-12-28T20:00:39.691Z,100701.81
2022-12-28T20:02:41.586Z,100712.72
2022-12-28T20:04:43.419Z,100707.56
2022-12-28T20:06:45.628Z,100675.00
2022-12-28T20:08:49.633Z,100707.91
2022-12-28T20:10:57.324Z,100694.13
2022-12-28T20:12:59.126Z,100705.63
2022-12-28T20:15:00.825Z,100705.16
2022-12-28T20:17:02.548Z,100698.31
2022-12-28T20:19:04.763Z,100692.72
2022-12-28T20:21:23.091Z,100695.72
2022-12-28T20:23:24.783Z,100691.88
2022-12-28T20:25:26.541Z,100656.56
2022-12-28T20:27:28.252Z,100651.19
2022-12-28T20:29:29.931Z,100683.28
2022-12-28T20:31:31.898Z,100680.81
2022-12-28T20:33:35.744Z,100686.56
2022-12-28T20:35:37.431Z,100685.06
2022-12-28T20:37:39.122Z,100689.75
2022-12-28T20:39:40.860Z,100670.88
2022-12-28T20:41:42.621Z,100682.69
2022-12-28T20:43:44.288Z,100679.63
2022-12-28T20:45:50.704Z,100662.84
2022-12-28T20:47:55.712Z,100671.09
2022-12-28T20:49:57.612Z,100659.94
2022-12-28T20:51:59.299Z,100666.41
2022-12-28T20:54:01.581Z,100661.38
2022-12-28T20:56:08.030Z,100662.84
2022-12-28T20:58:09.726Z,100664.66
2022-12-28T21:00:12.065Z,100652.78
2022-12-28T21:02:13.816Z,100661.91
2022-12-28T21:04:15.635Z,100661.38
2022-12-28T21:06:17.428Z,100641.75
2022-12-28T21:08:19.454Z,100636.13
2022-12-28T21:10:21.240Z,100666.56
2022-12-28T21:12:22.965Z,100665.00
2022-12-28T21:14:25.305Z,100666.06
2022-12-28T21:16:27.056Z,100646.69
2022-12-28T21:18:28.820Z,100667.88
2022-12-28T21:20:35.442Z,100670.88
2022-12-28T21:22:40.413Z,100650.66
2022-12-28T21:24:42.360Z,100668.94
2022-12-28T21:26:44.022Z,100661.63
2022-12-28T21:28:46.323Z,100627.03
2022-12-28T21:30:53.872Z,100660.22
2022-12-28T21:32:55.763Z,100659.84
2022-12-28T21:34:57.486Z,100659.97
2022-12-28T21:36:59.154Z,100637.09
2022-12-28T21:39:00.882Z,100634.47
2022-12-28T21:41:06.805Z,100652.44
2022-12-28T21:43:08.516Z,100627.16
2022-12-28T21:45:10.787Z,100638.66
2022-12-28T21:47:12.479Z,100648.81
2022-12-28T21:49:14.309Z,100649.03
2022-12-28T21:51:16.662Z,100631.94
2022-12-28T21:53:18.383Z,100650.00
2022-12-28T21:55:20.263Z,100629.31
2022-12-28T21:57:22.252Z,100639.13
2022-12-28T21:59:25.843Z,100634.22
2022-12-28T22:01:37.720Z,100641.97
2022-12-28T22:03:49.651Z,100635.06
2022-12-28T22:05:51.322Z,100632.91
2022-12-28T22:07:53.035Z,100628.81
2022-12-28T22:09:54.759Z,100613.03
2022-12-28T22:11:56.604Z,100631.56
2022-12-28T22:13:58.701Z,100628.47
2022-12-28T22:16:00.597Z,100620.44
2022-12-28T22:18:08.783Z,100623.56
2022-12-28T22:20:12.586Z,100630.38
2022-12-28T22:22:14.306Z,100630.00
2022-12-28T22:24:16.045Z,100607.75
2022-12-28T22:26:17.739Z,100636.81
2022-12-28T22:28:19.432Z,100605.84
2022-12-28T22:30:21.425Z,100629.03
2022-12-28T22:32:23.321Z,100614.69
2022-12-28T22:34:25.130Z,100616.69
2022-12-28T22:36:26.838Z,100629.16
2022-12-28T22:38:28.542Z,100624.00
2022-12-28T22:40:30.211Z,100601.16
2022-12-28T22:42:32.368Z,100602.00
2022-12-28T22:44:35.241Z,100615.06
2022-12-28T22:46:37.062Z,100600.63
2022-12-28T22:48:38.976Z,100613.88
2022-12-28T22:50:43.323Z,100613.88
2022-12-28T22:52:45.294Z,100602.75
2022-12-28T22:54:47.066Z,100612.06
2022-12-28T22:56:48.841Z,100609.91
2022-12-28T22:58:50.681Z,100600.84
2022-12-28T23:00:53.656Z,100602.97
2022-12-28T23:02:55.410Z,100607.88
2022-12-28T23:04:57.358Z,100581.91
2022-12-28T23:07:03.506Z,100566.72
2022-12-28T23:09:05.813Z,100600.47
2022-12-28T23:11:10.602Z,100583.13
2022-12-28T23:13:12.301Z,100594.00
2022-12-28T23:15:13.984Z,100574.88
2022-12-28T23:17:16.886Z,100586.00
2022-12-28T23:19:18.995Z,100575.69
2022-12-28T23:21:23.052Z,100581.91
2022-12-28T23:23:24.775Z,100566.38
2022-12-28T23:25:26.740Z,100586.59
2022-12-28T23:27:47.568Z,100581.81
2022-12-28T23:29:50.454Z,100594.28
2022-12-28T23:31:52.152Z,100585.41
2022-12-28T23:33:53.918Z,100590.78
2022-12-28T23:35:55.626Z,100572.75
2022-12-28T23:37:57.335Z,100585.03
2022-12-28T23:39:59.175Z,100542.09
2022-12-28T23:42:00.883Z,100556.34
2022-12-28T23:44:02.971Z,100565.28
2022-12-28T23:46:04.942Z,100560.28
2022-12-28T23:48:06.707Z,100568.91
2022-12-28T23:50:09.169Z,100567.47
2022-12-28T23:52:11.266Z,100581.09